BEE1DE EGFF-EGJJ
Flight info
| Callsign | BEE1DE |
|---|---|
| Flight time | 0h 36m |
| Altitude | 21000 |
| Route | EXMOR N40 KLAKI L149 BIGNO |
| Aircraft | DH8D/M-SDE2E3FGRY/H |
Departure
| Time | 2026-05-08 16:03 |
|---|---|
| Airport | Cardiff International Airport (EGFF) |
Arrival
| Time | 2026-05-08 16:40 |
|---|---|
| Airport | Jersey Airport (EGJJ) |
| Time | Latitude | Longitude | Altitude | Speed | Heading |
|---|---|---|---|---|---|
| 2026-05-08 15:42 | 51.39806 | -3.33948 | 221 ft | 0 kts | 83° |
| 2026-05-08 15:51 | 51.39807 | -3.33947 | 220 ft | 0 kts | 83° |
| 2026-05-08 15:53 | 51.39805 | -3.33964 | 221 ft | 2 kts | 83° |
| 2026-05-08 15:54 | 51.39804 | -3.33988 | 221 ft | 2 kts | 83° |
| 2026-05-08 15:54 | 51.39802 | -3.34011 | 221 ft | 2 kts | 83° |
| 2026-05-08 15:54 | 51.39800 | -3.34032 | 221 ft | 0 kts | 83° |
| 2026-05-08 15:54 | 51.39799 | -3.34044 | 221 ft | 2 kts | 69° |
| 2026-05-08 15:55 | 51.39787 | -3.34065 | 222 ft | 2 kts | 22° |
| 2026-05-08 15:55 | 51.39760 | -3.34056 | 222 ft | 2 kts | 312° |
| 2026-05-08 15:55 | 51.39755 | -3.34042 | 222 ft | 0 kts | 292° |
| 2026-05-08 15:59 | 51.39770 | -3.34098 | 222 ft | 10 kts | 296° |
| 2026-05-08 16:00 | 51.39819 | -3.34246 | 222 ft | 14 kts | 298° |
| 2026-05-08 16:00 | 51.39864 | -3.34389 | 223 ft | 14 kts | 297° |
| 2026-05-08 16:00 | 51.39908 | -3.34529 | 223 ft | 13 kts | 297° |
| 2026-05-08 16:00 | 51.39963 | -3.34701 | 223 ft | 19 kts | 297° |
| 2026-05-08 16:01 | 51.40019 | -3.34882 | 223 ft | 16 kts | 296° |
| 2026-05-08 16:01 | 51.40068 | -3.35037 | 221 ft | 14 kts | 297° |
| 2026-05-08 16:01 | 51.40114 | -3.35184 | 220 ft | 14 kts | 297° |
| 2026-05-08 16:01 | 51.40155 | -3.35325 | 218 ft | 13 kts | 283° |
| 2026-05-08 16:02 | 51.40134 | -3.35459 | 217 ft | 12 kts | 230° |
| 2026-05-08 16:02 | 51.40071 | -3.35533 | 216 ft | 9 kts | 210° |
| 2026-05-08 16:02 | 51.40041 | -3.35533 | 216 ft | 3 kts | 119° |
| 2026-05-08 16:02 | 51.40037 | -3.35522 | 216 ft | 0 kts | 117° |
| 2026-05-08 16:03 | 51.40000 | -3.35405 | 218 ft | 35 kts | 117° |
| 2026-05-08 16:03 | 51.39748 | -3.34606 | 224 ft | 119 kts | 117° |
| 2026-05-08 16:03 | 51.39280 | -3.33232 | 373 ft | 151 kts | 121° |
| 2026-05-08 16:03 | 51.38741 | -3.31824 | 966 ft | 154 kts | 121° |
| 2026-05-08 16:04 | 51.38161 | -3.30248 | 1317 ft | 175 kts | 118° |
| 2026-05-08 16:04 | 51.37611 | -3.28380 | 1644 ft | 198 kts | 115° |
| 2026-05-08 16:04 | 51.36956 | -3.26390 | 2153 ft | 206 kts | 128° |
| 2026-05-08 16:04 | 51.35903 | -3.24886 | 2711 ft | 207 kts | 150° |
| 2026-05-08 16:05 | 51.34525 | -3.24129 | 3228 ft | 211 kts | 171° |
| 2026-05-08 16:05 | 51.33074 | -3.24386 | 3750 ft | 216 kts | 202° |
| 2026-05-08 16:05 | 51.31773 | -3.25571 | 4297 ft | 219 kts | 211° |
| 2026-05-08 16:05 | 51.30495 | -3.26896 | 4768 ft | 227 kts | 212° |
| 2026-05-08 16:06 | 51.29193 | -3.28519 | 4958 ft | 248 kts | 222° |
| 2026-05-08 16:06 | 51.27946 | -3.30520 | 5006 ft | 251 kts | 223° |
| 2026-05-08 16:06 | 51.26694 | -3.32429 | 5020 ft | 249 kts | 221° |
| 2026-05-08 16:06 | 51.25362 | -3.34181 | 5011 ft | 246 kts | 209° |
| 2026-05-08 16:07 | 51.23751 | -3.34917 | 5038 ft | 240 kts | 187° |
| 2026-05-08 16:07 | 51.22086 | -3.35235 | 5043 ft | 239 kts | 186° |
| 2026-05-08 16:07 | 51.20415 | -3.35516 | 5412 ft | 245 kts | 185° |
| 2026-05-08 16:07 | 51.18709 | -3.35745 | 5912 ft | 247 kts | 180° |
| 2026-05-08 16:08 | 51.17077 | -3.35029 | 6428 ft | 249 kts | 150° |
| 2026-05-08 16:08 | 51.15659 | -3.33451 | 6942 ft | 251 kts | 145° |
| 2026-05-08 16:08 | 51.14292 | -3.31857 | 7405 ft | 252 kts | 145° |
| 2026-05-08 16:08 | 51.12965 | -3.30301 | 7855 ft | 254 kts | 144° |
| 2026-05-08 16:09 | 51.11427 | -3.28496 | 8426 ft | 255 kts | 144° |
| 2026-05-08 16:09 | 51.09958 | -3.26769 | 8918 ft | 258 kts | 144° |
| 2026-05-08 16:09 | 51.08500 | -3.25127 | 9395 ft | 260 kts | 150° |
| 2026-05-08 16:09 | 51.06771 | -3.24388 | 9852 ft | 261 kts | 176° |
| 2026-05-08 16:10 | 51.04970 | -3.24346 | 10306 ft | 264 kts | 179° |
| 2026-05-08 16:10 | 51.03120 | -3.24321 | 10830 ft | 264 kts | 179° |
| 2026-05-08 16:10 | 51.01283 | -3.24301 | 11241 ft | 268 kts | 179° |
| 2026-05-08 16:10 | 50.99421 | -3.24278 | 11722 ft | 269 kts | 179° |
| 2026-05-08 16:11 | 50.97548 | -3.24249 | 12168 ft | 271 kts | 179° |
| 2026-05-08 16:11 | 50.95650 | -3.24218 | 12571 ft | 274 kts | 179° |
| 2026-05-08 16:11 | 50.93727 | -3.24187 | 12995 ft | 275 kts | 179° |
| 2026-05-08 16:11 | 50.91796 | -3.24156 | 13370 ft | 278 kts | 179° |
| 2026-05-08 16:12 | 50.89860 | -3.24124 | 13788 ft | 279 kts | 179° |
| 2026-05-08 16:12 | 50.87909 | -3.24091 | 14186 ft | 280 kts | 179° |
| 2026-05-08 16:12 | 50.85951 | -3.24057 | 14534 ft | 281 kts | 179° |
| 2026-05-08 16:12 | 50.83996 | -3.24022 | 14872 ft | 283 kts | 180° |
| 2026-05-08 16:13 | 50.82035 | -3.23988 | 15243 ft | 284 kts | 180° |
| 2026-05-08 16:13 | 50.80048 | -3.23952 | 15602 ft | 285 kts | 180° |
| 2026-05-08 16:13 | 50.78056 | -3.23917 | 15865 ft | 288 kts | 180° |
| 2026-05-08 16:13 | 50.76061 | -3.23839 | 16183 ft | 288 kts | 176° |
| 2026-05-08 16:14 | 50.74073 | -3.23393 | 16477 ft | 290 kts | 171° |
| 2026-05-08 16:14 | 50.72058 | -3.22826 | 16735 ft | 292 kts | 171° |
| 2026-05-08 16:14 | 50.70052 | -3.22261 | 17001 ft | 294 kts | 171° |
| 2026-05-08 16:14 | 50.68044 | -3.21698 | 17311 ft | 294 kts | 171° |
| 2026-05-08 16:15 | 50.66022 | -3.21135 | 17542 ft | 296 kts | 172° |
| 2026-05-08 16:15 | 50.63991 | -3.20571 | 17791 ft | 298 kts | 172° |
| 2026-05-08 16:15 | 50.61969 | -3.20012 | 18044 ft | 299 kts | 172° |
| 2026-05-08 16:15 | 50.59909 | -3.19445 | 18300 ft | 301 kts | 172° |
| 2026-05-08 16:16 | 50.57843 | -3.18876 | 18543 ft | 302 kts | 172° |
| 2026-05-08 16:16 | 50.55756 | -3.18303 | 18811 ft | 302 kts | 172° |
| 2026-05-08 16:16 | 50.53714 | -3.17743 | 19066 ft | 302 kts | 172° |
| 2026-05-08 16:16 | 50.51617 | -3.17170 | 19255 ft | 304 kts | 172° |
| 2026-05-08 16:17 | 50.49541 | -3.16602 | 19496 ft | 305 kts | 172° |
| 2026-05-08 16:17 | 50.47447 | -3.16030 | 19896 ft | 298 kts | 172° |
| 2026-05-08 16:17 | 50.45451 | -3.15481 | 20359 ft | 291 kts | 172° |
| 2026-05-08 16:17 | 50.43456 | -3.14938 | 20589 ft | 291 kts | 172° |
| 2026-05-08 16:18 | 50.41463 | -3.14396 | 20817 ft | 291 kts | 172° |
| 2026-05-08 16:18 | 50.39475 | -3.13856 | 20956 ft | 293 kts | 172° |
| 2026-05-08 16:18 | 50.37461 | -3.13265 | 20997 ft | 300 kts | 168° |
| 2026-05-08 16:18 | 50.35512 | -3.11999 | 21029 ft | 307 kts | 155° |
| 2026-05-08 16:19 | 50.33591 | -3.10389 | 21023 ft | 313 kts | 154° |
| 2026-05-08 16:19 | 50.31676 | -3.08773 | 21020 ft | 318 kts | 154° |
| 2026-05-08 16:19 | 50.29722 | -3.07129 | 21018 ft | 322 kts | 154° |
| 2026-05-08 16:19 | 50.27741 | -3.05468 | 21017 ft | 325 kts | 154° |
| 2026-05-08 16:20 | 50.25728 | -3.03786 | 21018 ft | 328 kts | 154° |
| 2026-05-08 16:20 | 50.23711 | -3.02106 | 21021 ft | 330 kts | 154° |
| 2026-05-08 16:20 | 50.21684 | -3.00421 | 21025 ft | 332 kts | 154° |
| 2026-05-08 16:20 | 50.19643 | -2.98750 | 21028 ft | 333 kts | 155° |
| 2026-05-08 16:21 | 50.17567 | -2.97091 | 21030 ft | 334 kts | 155° |
| 2026-05-08 16:21 | 50.15493 | -2.95444 | 21030 ft | 336 kts | 155° |
| 2026-05-08 16:21 | 50.13430 | -2.93812 | 21030 ft | 336 kts | 155° |
| 2026-05-08 16:21 | 50.11345 | -2.92167 | 21030 ft | 337 kts | 155° |
| 2026-05-08 16:22 | 50.09237 | -2.90513 | 21028 ft | 338 kts | 155° |
| 2026-05-08 16:22 | 50.07155 | -2.88870 | 21023 ft | 339 kts | 155° |
| 2026-05-08 16:22 | 50.05032 | -2.87204 | 21019 ft | 339 kts | 155° |
| 2026-05-08 16:22 | 50.02929 | -2.85562 | 21016 ft | 340 kts | 155° |
| 2026-05-08 16:23 | 50.00829 | -2.83933 | 21012 ft | 339 kts | 155° |
| 2026-05-08 16:23 | 49.98718 | -2.82279 | 21013 ft | 337 kts | 155° |
| 2026-05-08 16:23 | 49.96624 | -2.80663 | 21009 ft | 335 kts | 157° |
| 2026-05-08 16:23 | 49.94430 | -2.79605 | 21022 ft | 330 kts | 169° |
| 2026-05-08 16:24 | 49.92175 | -2.78881 | 21007 ft | 330 kts | 169° |
| 2026-05-08 16:24 | 49.89926 | -2.78132 | 21005 ft | 329 kts | 169° |
| 2026-05-08 16:24 | 49.87691 | -2.77355 | 21007 ft | 329 kts | 168° |
| 2026-05-08 16:24 | 49.85467 | -2.76554 | 21005 ft | 328 kts | 168° |
| 2026-05-08 16:25 | 49.83241 | -2.75734 | 21001 ft | 328 kts | 168° |
| 2026-05-08 16:25 | 49.81025 | -2.74903 | 21005 ft | 328 kts | 167° |
| 2026-05-08 16:25 | 49.78799 | -2.74057 | 21001 ft | 328 kts | 167° |
| 2026-05-08 16:25 | 49.76604 | -2.73215 | 20998 ft | 328 kts | 167° |
| 2026-05-08 16:26 | 49.74365 | -2.72353 | 20753 ft | 335 kts | 167° |
| 2026-05-08 16:26 | 49.72075 | -2.71469 | 20328 ft | 341 kts | 167° |
| 2026-05-08 16:26 | 49.69767 | -2.70573 | 19868 ft | 344 kts | 167° |
| 2026-05-08 16:26 | 49.67471 | -2.69675 | 19356 ft | 342 kts | 167° |
| 2026-05-08 16:27 | 49.65192 | -2.68779 | 18855 ft | 336 kts | 167° |
| 2026-05-08 16:27 | 49.62945 | -2.67897 | 18392 ft | 331 kts | 167° |
| 2026-05-08 16:27 | 49.60731 | -2.67030 | 17923 ft | 326 kts | 167° |
| 2026-05-08 16:27 | 49.58540 | -2.66173 | 17462 ft | 323 kts | 167° |
| 2026-05-08 16:28 | 49.56375 | -2.65327 | 16999 ft | 319 kts | 167° |
| 2026-05-08 16:28 | 49.54240 | -2.64495 | 16535 ft | 316 kts | 167° |
| 2026-05-08 16:28 | 49.52119 | -2.63671 | 16083 ft | 313 kts | 167° |
| 2026-05-08 16:28 | 49.50042 | -2.62858 | 15636 ft | 310 kts | 167° |
| 2026-05-08 16:29 | 49.47951 | -2.62044 | 15190 ft | 307 kts | 167° |
| 2026-05-08 16:29 | 49.45913 | -2.61252 | 14755 ft | 304 kts | 167° |
| 2026-05-08 16:29 | 49.43884 | -2.60289 | 14282 ft | 303 kts | 159° |
| 2026-05-08 16:29 | 49.42001 | -2.58933 | 13844 ft | 302 kts | 155° |
| 2026-05-08 16:30 | 49.40136 | -2.57538 | 13382 ft | 293 kts | 157° |
| 2026-05-08 16:30 | 49.38224 | -2.56670 | 12883 ft | 284 kts | 169° |
| 2026-05-08 16:30 | 49.36319 | -2.56119 | 12425 ft | 276 kts | 170° |
| 2026-05-08 16:30 | 49.34460 | -2.55600 | 11988 ft | 268 kts | 170° |
| 2026-05-08 16:31 | 49.32656 | -2.55104 | 11553 ft | 261 kts | 170° |
| 2026-05-08 16:31 | 49.30889 | -2.54625 | 11119 ft | 255 kts | 170° |
| 2026-05-08 16:31 | 49.29181 | -2.54165 | 10715 ft | 248 kts | 169° |
| 2026-05-08 16:31 | 49.27561 | -2.53267 | 10357 ft | 252 kts | 153° |
| 2026-05-08 16:32 | 49.26024 | -2.51934 | 10020 ft | 258 kts | 150° |
| 2026-05-08 16:32 | 49.24452 | -2.50553 | 9765 ft | 260 kts | 150° |
| 2026-05-08 16:32 | 49.22871 | -2.49164 | 9424 ft | 259 kts | 150° |
| 2026-05-08 16:32 | 49.21349 | -2.47822 | 8995 ft | 252 kts | 150° |
| 2026-05-08 16:33 | 49.19839 | -2.46535 | 8557 ft | 246 kts | 155° |
| 2026-05-08 16:33 | 49.18186 | -2.46041 | 8111 ft | 239 kts | 184° |
| 2026-05-08 16:33 | 49.16675 | -2.46824 | 7687 ft | 233 kts | 212° |
| 2026-05-08 16:33 | 49.15631 | -2.48657 | 7295 ft | 229 kts | 243° |
| 2026-05-08 16:34 | 49.15346 | -2.51002 | 6777 ft | 230 kts | 273° |
| 2026-05-08 16:34 | 49.15892 | -2.53290 | 6218 ft | 232 kts | 304° |
| 2026-05-08 16:34 | 49.17123 | -2.54840 | 5658 ft | 232 kts | 336° |
| 2026-05-08 16:34 | 49.18673 | -2.55212 | 5226 ft | 226 kts | 8° |
| 2026-05-08 16:35 | 49.20014 | -2.54224 | 4890 ft | 209 kts | 50° |
| 2026-05-08 16:35 | 49.20493 | -2.52290 | 4562 ft | 191 kts | 95° |
| 2026-05-08 16:35 | 49.19970 | -2.50534 | 4162 ft | 185 kts | 128° |
| 2026-05-08 16:35 | 49.19191 | -2.48978 | 3762 ft | 186 kts | 123° |
| 2026-05-08 16:36 | 49.18680 | -2.47176 | 3497 ft | 182 kts | 102° |
| 2026-05-08 16:36 | 49.18616 | -2.45260 | 3320 ft | 179 kts | 88° |
| 2026-05-08 16:36 | 49.18748 | -2.43389 | 3113 ft | 178 kts | 84° |
| 2026-05-08 16:36 | 49.18918 | -2.41519 | 2899 ft | 178 kts | 84° |
| 2026-05-08 16:37 | 49.19085 | -2.39620 | 2678 ft | 180 kts | 84° |
| 2026-05-08 16:37 | 49.19249 | -2.37735 | 2451 ft | 178 kts | 83° |
| 2026-05-08 16:37 | 49.19410 | -2.35890 | 2206 ft | 173 kts | 83° |
| 2026-05-08 16:37 | 49.19568 | -2.34113 | 1973 ft | 164 kts | 84° |
| 2026-05-08 16:38 | 49.19707 | -2.32418 | 1807 ft | 162 kts | 84° |
| 2026-05-08 16:38 | 49.19841 | -2.30695 | 1586 ft | 164 kts | 83° |
| 2026-05-08 16:38 | 49.19985 | -2.28946 | 1367 ft | 165 kts | 83° |
| 2026-05-08 16:38 | 49.20135 | -2.27300 | 1148 ft | 146 kts | 81° |
| 2026-05-08 16:39 | 49.20264 | -2.25866 | 963 ft | 123 kts | 80° |
| 2026-05-08 16:39 | 49.20361 | -2.24601 | 820 ft | 121 kts | 83° |
| 2026-05-08 16:39 | 49.20464 | -2.23259 | 653 ft | 128 kts | 84° |
| 2026-05-08 16:39 | 49.20598 | -2.21921 | 499 ft | 126 kts | 82° |
| 2026-05-08 16:40 | 49.20706 | -2.20598 | 301 ft | 126 kts | 83° |
| 2026-05-08 16:40 | 49.20810 | -2.19390 | 275 ft | 93 kts | 83° |
| 2026-05-08 16:40 | 49.20863 | -2.18717 | 274 ft | 43 kts | 81° |
| 2026-05-08 16:40 | 49.20879 | -2.18439 | 275 ft | 18 kts | 111° |
| 2026-05-08 16:41 | 49.20788 | -2.18397 | 274 ft | 14 kts | 212° |
| 2026-05-08 16:41 | 49.20729 | -2.18515 | 274 ft | 13 kts | 264° |
| 2026-05-08 16:41 | 49.20720 | -2.18659 | 273 ft | 13 kts | 265° |